sensor_id;sensor_type;location;lat;lon;timestamp;pressure;altitude;pressure_sealevel;temperature;humidity
57442;BME280;43284;47.042;15.498;2024-03-02T00:01:48;96331.13;;;6.53;100.00
57442;BME280;43284;47.042;15.498;2024-03-02T00:04:17;96337.25;;;6.52;100.00
57442;BME280;43284;47.042;15.498;2024-03-02T00:06:42;96336.44;;;6.52;100.00
57442;BME280;43284;47.042;15.498;2024-03-02T00:09:19;96332.91;;;6.53;100.00
57442;BME280;43284;47.042;15.498;2024-03-02T00:11:49;96343.28;;;6.53;100.00
57442;BME280;43284;47.042;15.498;2024-03-02T00:14:16;96342.41;;;6.54;100.00
57442;BME280;43284;47.042;15.498;2024-03-02T00:16:45;96335.44;;;6.54;100.00
57442;BME280;43284;47.042;15.498;2024-03-02T00:19:14;96335.28;;;6.57;100.00
57442;BME280;43284;47.042;15.498;2024-03-02T00:21:42;96333.47;;;6.59;100.00
57442;BME280;43284;47.042;15.498;2024-03-02T00:24:21;96328.34;;;6.58;100.00
57442;BME280;43284;47.042;15.498;2024-03-02T00:26:47;96330.94;;;6.58;100.00
57442;BME280;43284;47.042;15.498;2024-03-02T00:29:17;96336.00;;;6.61;100.00
57442;BME280;43284;47.042;15.498;2024-03-02T00:31:54;96332.56;;;6.60;100.00
57442;BME280;43284;47.042;15.498;2024-03-02T00:34:26;96330.03;;;6.59;100.00
57442;BME280;43284;47.042;15.498;2024-03-02T00:37:01;96328.28;;;6.59;100.00
57442;BME280;43284;47.042;15.498;2024-03-02T00:39:29;96329.25;;;6.57;100.00
57442;BME280;43284;47.042;15.498;2024-03-02T00:41:57;96336.28;;;6.55;100.00
57442;BME280;43284;47.042;15.498;2024-03-02T00:44:33;96334.44;;;6.57;100.00
57442;BME280;43284;47.042;15.498;2024-03-02T00:47:02;96336.13;;;6.58;100.00
57442;BME280;43284;47.042;15.498;2024-03-02T00:49:34;96330.94;;;6.58;100.00
57442;BME280;43284;47.042;15.498;2024-03-02T00:51:59;96342.19;;;6.58;100.00
57442;BME280;43284;47.042;15.498;2024-03-02T00:54:33;96340.56;;;6.56;100.00
57442;BME280;43284;47.042;15.498;2024-03-02T00:57:02;96329.19;;;6.58;100.00
57442;BME280;43284;47.042;15.498;2024-03-02T00:59:28;96330.09;;;6.57;100.00
57442;BME280;43284;47.042;15.498;2024-03-02T01:02:00;96329.19;;;6.58;100.00
57442;BME280;43284;47.042;15.498;2024-03-02T01:04:26;96342.09;;;6.60;100.00
57442;BME280;43284;47.042;15.498;2024-03-02T01:07:24;96334.38;;;6.58;100.00
57442;BME280;43284;47.042;15.498;2024-03-02T01:14:34;96324.69;;;6.62;100.00
57442;BME280;43284;47.042;15.498;2024-03-02T01:23:37;96323.84;;;6.62;100.00
57442;BME280;43284;47.042;15.498;2024-03-02T01:26:13;96328.22;;;6.61;100.00
57442;BME280;43284;47.042;15.498;2024-03-02T01:28:42;96322.09;;;6.62;100.00
57442;BME280;43284;47.042;15.498;2024-03-02T01:31:16;96317.75;;;6.63;100.00
57442;BME280;43284;47.042;15.498;2024-03-02T01:33:47;96325.53;;;6.63;100.00
57442;BME280;43284;47.042;15.498;2024-03-02T01:36:24;96321.19;;;6.63;100.00
57442;BME280;43284;47.042;15.498;2024-03-02T01:38:58;96317.75;;;6.63;100.00
57442;BME280;43284;47.042;15.498;2024-03-02T01:41:34;96314.28;;;6.62;100.00
57442;BME280;43284;47.042;15.498;2024-03-02T01:44:05;96319.59;;;6.60;100.00
57442;BME280;43284;47.042;15.498;2024-03-02T01:46:34;96322.19;;;6.60;100.00
57442;BME280;43284;47.042;15.498;2024-03-02T01:49:06;96316.13;;;6.60;100.00
57442;BME280;43284;47.042;15.498;2024-03-02T01:51:39;96319.81;;;6.56;100.00
57442;BME280;43284;47.042;15.498;2024-03-02T01:54:10;96323.13;;;6.58;100.00
57442;BME280;43284;47.042;15.498;2024-03-02T01:56:36;96318.81;;;6.58;100.00
57442;BME280;43284;47.042;15.498;2024-03-02T01:59:11;96317.88;;;6.59;100.00
57442;BME280;43284;47.042;15.498;2024-03-02T02:01:42;96313.63;;;6.58;100.00
57442;BME280;43284;47.042;15.498;2024-03-02T02:04:13;96315.56;;;6.53;100.00
57442;BME280;43284;47.042;15.498;2024-03-02T02:06:48;96317.25;;;6.54;100.00
57442;BME280;43284;47.042;15.498;2024-03-02T02:09:14;96312.00;;;6.56;100.00
57442;BME280;43284;47.042;15.498;2024-03-02T02:11:53;96316.28;;;6.57;100.00
57442;BME280;43284;47.042;15.498;2024-03-02T02:14:27;96316.22;;;6.58;100.00
57442;BME280;43284;47.042;15.498;2024-03-02T02:17:11;96310.16;;;6.58;100.00
57442;BME280;43284;47.042;15.498;2024-03-02T02:19:53;96304.22;;;6.56;100.00
57442;BME280;43284;47.042;15.498;2024-03-02T02:22:29;96304.22;;;6.56;100.00
57442;BME280;43284;47.042;15.498;2024-03-02T02:25:00;96292.19;;;6.53;100.00
57442;BME280;43284;47.042;15.498;2024-03-02T02:27:52;96304.34;;;6.53;100.00
57442;BME280;43284;47.042;15.498;2024-03-02T02:30:29;96292.34;;;6.50;100.00
57442;BME280;43284;47.042;15.498;2024-03-02T02:33:03;96292.28;;;6.52;100.00
57442;BME280;43284;47.042;15.498;2024-03-02T02:35:59;96287.94;;;6.52;100.00
57442;BME280;43284;47.042;15.498;2024-03-02T02:38:27;96290.59;;;6.51;100.00
57442;BME280;43284;47.042;15.498;2024-03-02T02:41:09;96285.41;;;6.51;100.00
57442;BME280;43284;47.042;15.498;2024-03-02T02:43:48;96297.38;;;6.53;100.00
57442;BME280;43284;47.042;15.498;2024-03-02T02:46:16;96287.16;;;6.50;100.00
57442;BME280;43284;47.042;15.498;2024-03-02T02:48:42;96289.75;;;6.50;100.00
57442;BME280;43284;47.042;15.498;2024-03-02T02:51:42;96290.75;;;6.48;100.00
57442;BME280;43284;47.042;15.498;2024-03-02T02:54:23;96290.59;;;6.51;100.00
57442;BME280;43284;47.042;15.498;2024-03-02T02:56:51;96294.03;;;6.51;100.00
57442;BME280;43284;47.042;15.498;2024-03-02T02:59:20;96294.13;;;6.50;100.00
57442;BME280;43284;47.042;15.498;2024-03-02T03:02:07;96289.03;;;6.47;100.00
57442;BME280;43284;47.042;15.498;2024-03-02T03:05:01;96288.97;;;6.48;100.00
57442;BME280;43284;47.042;15.498;2024-03-02T03:07:41;96285.47;;;6.49;100.00
57442;BME280;43284;47.042;15.498;2024-03-02T03:10:15;96289.75;;;6.50;100.00
57442;BME280;43284;47.042;15.498;2024-03-02T03:12:47;96287.22;;;6.49;100.00
57442;BME280;43284;47.042;15.498;2024-03-02T03:15:15;96281.19;;;6.48;100.00
57442;BME280;43284;47.042;15.498;2024-03-02T03:17:53;96285.47;;;6.49;100.00
57442;BME280;43284;47.042;15.498;2024-03-02T03:20:28;96282.03;;;6.49;100.00
57442;BME280;43284;47.042;15.498;2024-03-02T03:23:03;96281.25;;;6.47;100.00
57442;BME280;43284;47.042;15.498;2024-03-02T03:25:32;96280.47;;;6.45;100.00
57442;BME280;43284;47.042;15.498;2024-03-02T03:28:16;96278.59;;;6.48;100.00
57442;BME280;43284;47.042;15.498;2024-03-02T03:30:49;96278.59;;;6.48;100.00
57442;BME280;43284;47.042;15.498;2024-03-02T03:33:20;96287.22;;;6.49;100.00
57442;BME280;43284;47.042;15.498;2024-03-02T03:35:49;96279.53;;;6.47;100.00
57442;BME280;43284;47.042;15.498;2024-03-02T03:38:23;96289.97;;;6.46;100.00
57442;BME280;43284;47.042;15.498;2024-03-02T03:40:49;96285.63;;;6.46;100.00
57442;BME280;43284;47.042;15.498;2024-03-02T03:43:32;96282.19;;;6.46;100.00
57442;BME280;43284;47.042;15.498;2024-03-02T03:46:03;96284.72;;;6.47;100.00
57442;BME280;43284;47.042;15.498;2024-03-02T03:48:44;96286.44;;;6.47;100.00
57442;BME280;43284;47.042;15.498;2024-03-02T03:51:21;96280.25;;;6.49;100.00
57442;BME280;43284;47.042;15.498;2024-03-02T03:54:11;96279.44;;;6.49;100.00
57442;BME280;43284;47.042;15.498;2024-03-02T03:59:29;96269.13;;;6.47;100.00
57442;BME280;43284;47.042;15.498;2024-03-02T04:02:06;96275.16;;;6.48;100.00
57442;BME280;43284;47.042;15.498;2024-03-02T04:04:39;96270.03;;;6.46;100.00
57442;BME280;43284;47.042;15.498;2024-03-02T04:07:16;96273.56;;;6.45;100.00
57442;BME280;43284;47.042;15.498;2024-03-02T04:09:44;96277.06;;;6.44;100.00
57442;BME280;43284;47.042;15.498;2024-03-02T04:12:13;96279.66;;;6.44;100.00
57442;BME280;43284;47.042;15.498;2024-03-02T04:14:44;96270.25;;;6.42;100.00
57442;BME280;43284;47.042;15.498;2024-03-02T04:17:12;96267.81;;;6.38;100.00
57442;BME280;43284;47.042;15.498;2024-03-02T04:19:54;96269.69;;;6.35;100.00
57442;BME280;43284;47.042;15.498;2024-03-02T04:22:25;96277.03;;;6.25;100.00
57442;BME280;43284;47.042;15.498;2024-03-02T04:24:56;96284.09;;;6.23;100.00
57442;BME280;43284;47.042;15.498;2024-03-02T04:27:31;96280.72;;;6.21;100.00
57442;BME280;43284;47.042;15.498;2024-03-02T04:29:58;96286.97;;;6.17;100.00
57442;BME280;43284;47.042;15.498;2024-03-02T04:32:28;96286.41;;;6.10;100.00
57442;BME280;43284;47.042;15.498;2024-03-02T04:35:09;96292.34;;;6.12;100.00
57442;BME280;43284;47.042;15.498;2024-03-02T04:37:43;96283.81;;;6.10;100.00
57442;BME280;43284;47.042;15.498;2024-03-02T04:40:11;96289.94;;;6.08;100.00
57442;BME280;43284;47.042;15.498;2024-03-02T04:42:42;96296.00;;;6.08;100.00
57442;BME280;43284;47.042;15.498;2024-03-02T04:45:08;96302.84;;;6.09;100.00
57442;BME280;43284;47.042;15.498;2024-03-02T04:47:37;96296.97;;;6.06;100.00
57442;BME280;43284;47.042;15.498;2024-03-02T04:50:06;96297.09;;;6.03;100.00
57442;BME280;43284;47.042;15.498;2024-03-02T04:52:43;96295.53;;;5.98;100.00
57442;BME280;43284;47.042;15.498;2024-03-02T04:55:17;96301.72;;;5.96;100.00
57442;BME280;43284;47.042;15.498;2024-03-02T04:58:28;96303.47;;;5.95;100.00
57442;BME280;43284;47.042;15.498;2024-03-02T05:00:59;96316.47;;;5.94;100.00
57442;BME280;43284;47.042;15.498;2024-03-02T05:03:30;96313.84;;;5.95;100.00
57442;BME280;43284;47.042;15.498;2024-03-02T05:06:06;96313.69;;;5.98;100.00
57442;BME280;43284;47.042;15.498;2024-03-02T05:08:38;96312.72;;;6.01;100.00
57442;BME280;43284;47.042;15.498;2024-03-02T05:11:10;96314.53;;;5.99;100.00
57442;BME280;43284;47.042;15.498;2024-03-02T05:14:07;96319.72;;;5.99;100.00
57442;BME280;43284;47.042;15.498;2024-03-02T05:16:44;96319.66;;;6.01;100.00
57442;BME280;43284;47.042;15.498;2024-03-02T05:19:18;96319.59;;;6.02;100.00
57442;BME280;43284;47.042;15.498;2024-03-02T05:21:55;96324.03;;;6.00;100.00
57442;BME280;43284;47.042;15.498;2024-03-02T05:24:23;96318.22;;;5.95;100.00
57442;BME280;43284;47.042;15.498;2024-03-02T05:27:12;96320.81;;;5.95;100.00
57442;BME280;43284;47.042;15.498;2024-03-02T05:30:01;96329.34;;;5.97;100.00
57442;BME280;43284;47.042;15.498;2024-03-02T05:35:30;96322.41;;;5.97;100.00
57442;BME280;43284;47.042;15.498;2024-03-02T05:38:11;96332.69;;;5.99;100.00
57442;BME280;43284;47.042;15.498;2024-03-02T05:40:52;96333.56;;;6.00;100.00
57442;BME280;43284;47.042;15.498;2024-03-02T05:43:23;96334.47;;;5.98;100.00
57442;BME280;43284;47.042;15.498;2024-03-02T05:45:51;96333.34;;;6.04;100.00
57442;BME280;43284;47.042;15.498;2024-03-02T05:48:27;96334.03;;;6.08;100.00
57442;BME280;43284;47.042;15.498;2024-03-02T05:51:00;96339.84;;;6.14;100.00
57442;BME280;43284;47.042;15.498;2024-03-02T05:53:31;96337.31;;;6.13;100.00
57442;BME280;43284;47.042;15.498;2024-03-02T05:55:57;96332.31;;;6.08;100.00
57442;BME280;43284;47.042;15.498;2024-03-02T05:58:25;96335.75;;;6.09;100.00
57442;BME280;43284;47.042;15.498;2024-03-02T06:01:15;96331.53;;;6.06;100.00
57442;BME280;43284;47.042;15.498;2024-03-02T06:06:31;96337.31;;;6.13;100.00
57442;BME280;43284;47.042;15.498;2024-03-02T06:09:14;96335.75;;;6.09;100.00
57442;BME280;43284;47.042;15.498;2024-03-02T06:11:48;96340.22;;;6.05;100.00
57442;BME280;43284;47.042;15.498;2024-03-02T06:14:27;96348.88;;;6.06;100.00
57442;BME280;43284;47.042;15.498;2024-03-02T06:17:24;96345.34;;;6.07;100.00
57442;BME280;43284;47.042;15.498;2024-03-02T06:19:58;96348.78;;;6.07;100.00
57442;BME280;43284;47.042;15.498;2024-03-02T06:22:36;96363.38;;;6.10;100.00
57442;BME280;43284;47.042;15.498;2024-03-02T06:25:18;96358.16;;;6.10;100.00
57442;BME280;43284;47.042;15.498;2024-03-02T06:30:30;96362.31;;;6.14;100.00
57442;BME280;43284;47.042;15.498;2024-03-02T06:33:13;96358.13;;;6.11;100.00
57442;BME280;43284;47.042;15.498;2024-03-02T06:36:04;96362.41;;;6.12;100.00
57442;BME280;43284;47.042;15.498;2024-03-02T06:38:38;96359.72;;;6.14;100.00
57442;BME280;43284;47.042;15.498;2024-03-02T06:41:35;96358.06;;;6.13;100.00
57442;BME280;43284;47.042;15.498;2024-03-02T06:44:18;96352.88;;;6.13;100.00
57442;BME280;43284;47.042;15.498;2024-03-02T06:46:53;96363.75;;;6.21;100.00
57442;BME280;43284;47.042;15.498;2024-03-02T06:49:24;96366.28;;;6.23;100.00
57442;BME280;43284;47.042;15.498;2024-03-02T06:51:50;96363.75;;;6.21;100.00
57442;BME280;43284;47.042;15.498;2024-03-02T06:54:53;96367.13;;;6.23;100.00
57442;BME280;43284;47.042;15.498;2024-03-02T06:57:23;96368.81;;;6.24;100.00
57442;BME280;43284;47.042;15.498;2024-03-02T06:59:55;96359.19;;;6.26;100.00
57442;BME280;43284;47.042;15.498;2024-03-02T07:02:32;96353.03;;;6.29;100.00
57442;BME280;43284;47.042;15.498;2024-03-02T07:05:06;96360.81;;;6.29;100.00
57442;BME280;43284;47.042;15.498;2024-03-02T07:07:48;96355.47;;;6.32;100.00
57442;BME280;43284;47.042;15.498;2024-03-02T07:13:31;96359.63;;;6.36;100.00
57442;BME280;43284;47.042;15.498;2024-03-02T07:16:22;96350.72;;;6.42;100.00
57442;BME280;43284;47.042;15.498;2024-03-02T07:19:09;96342.94;;;6.42;100.00
57442;BME280;43284;47.042;15.498;2024-03-02T07:21:45;96341.06;;;6.45;100.00
57442;BME280;43284;47.042;15.498;2024-03-02T07:24:29;96353.66;;;6.53;100.00
57442;BME280;43284;47.042;15.498;2024-03-02T07:27:19;96350.88;;;6.57;100.00
57442;BME280;43284;47.042;15.498;2024-03-02T07:30:13;96351.41;;;6.64;100.00
57442;BME280;43284;47.042;15.498;2024-03-02T07:32:59;96353.03;;;6.67;100.00
57442;BME280;43284;47.042;15.498;2024-03-02T07:35:39;96344.13;;;6.72;100.00
57442;BME280;43284;47.042;15.498;2024-03-02T07:38:04;96348.34;;;6.75;100.00
57442;BME280;43284;47.042;15.498;2024-03-02T07:40:42;96349.09;;;6.77;100.00
57442;BME280;43284;47.042;15.498;2024-03-02T07:43:24;96342.91;;;6.79;100.00
57442;BME280;43284;47.042;15.498;2024-03-02T07:45:58;96350.44;;;6.86;100.00
57442;BME280;43284;47.042;15.498;2024-03-02T07:48:31;96349.16;;;6.94;100.00
57442;BME280;43284;47.042;15.498;2024-03-02T07:51:42;96353.28;;;6.98;100.00
57442;BME280;43284;47.042;15.498;2024-03-02T07:54:37;96362.56;;;7.04;100.00
57442;BME280;43284;47.042;15.498;2024-03-02T07:57:14;96349.19;;;7.12;100.00
57442;BME280;43284;47.042;15.498;2024-03-02T08:02:40;96349.94;;;7.33;100.00
57442;BME280;43284;47.042;15.498;2024-03-02T08:05:22;96359.47;;;7.32;100.00
57442;BME280;43284;47.042;15.498;2024-03-02T08:08:07;96353.44;;;7.32;100.00
57442;BME280;43284;47.042;15.498;2024-03-02T08:10:44;96345.28;;;7.39;100.00
57442;BME280;43284;47.042;15.498;2024-03-02T08:13:37;96347.34;;;7.50;100.00
57442;BME280;43284;47.042;15.498;2024-03-02T08:16:11;96343.13;;;7.65;100.00
57442;BME280;43284;47.042;15.498;2024-03-02T08:18:47;96340.31;;;7.70;100.00
57442;BME280;43284;47.042;15.498;2024-03-02T08:21:38;96349.94;;;7.85;100.00
57442;BME280;43284;47.042;15.498;2024-03-02T08:24:36;96345.41;;;7.71;100.00
57442;BME280;43284;47.042;15.498;2024-03-02T08:27:16;96346.47;;;7.84;100.00
57442;BME280;43284;47.042;15.498;2024-03-02T08:29:45;96340.72;;;7.95;100.00
57442;BME280;43284;47.042;15.498;2024-03-02T08:32:11;96336.94;;;7.85;100.00
57442;BME280;43284;47.042;15.498;2024-03-02T08:34:37;96338.88;;;7.97;100.00
57442;BME280;43284;47.042;15.498;2024-03-02T08:37:06;96343.91;;;8.18;100.00
57442;BME280;43284;47.042;15.498;2024-03-02T08:39:34;96344.50;;;8.23;100.00
57442;BME280;43284;47.042;15.498;2024-03-02T08:42:10;96344.09;;;8.31;100.00
57442;BME280;43284;47.042;15.498;2024-03-02T08:44:39;96342.19;;;8.34;100.00
57442;BME280;43284;47.042;15.498;2024-03-02T08:47:10;96340.59;;;8.32;100.00
57442;BME280;43284;47.042;15.498;2024-03-02T08:49:35;96336.69;;;8.40;100.00
57442;BME280;43284;47.042;15.498;2024-03-02T08:52:03;96338.50;;;8.38;100.00
57442;BME280;43284;47.042;15.498;2024-03-02T08:54:31;96337.50;;;8.41;100.00
57442;BME280;43284;47.042;15.498;2024-03-02T08:57:04;96343.47;;;8.43;100.00
57442;BME280;43284;47.042;15.498;2024-03-02T08:59:33;96342.66;;;8.42;100.00
57442;BME280;43284;47.042;15.498;2024-03-02T09:01:59;96334.03;;;8.58;100.00
57442;BME280;43284;47.042;15.498;2024-03-02T09:04:24;96330.97;;;8.65;100.00
57442;BME280;43284;47.042;15.498;2024-03-02T09:07:04;96327.22;;;8.55;100.00
57442;BME280;43284;47.042;15.498;2024-03-02T09:09:32;96331.84;;;8.66;100.00
57442;BME280;43284;47.042;15.498;2024-03-02T09:11:58;96336.56;;;8.75;100.00
57442;BME280;43284;47.042;15.498;2024-03-02T09:14:26;96337.56;;;8.89;100.00
57442;BME280;43284;47.042;15.498;2024-03-02T09:16:54;96323.91;;;8.68;100.00
57442;BME280;43284;47.042;15.498;2024-03-02T09:19:20;96340.56;;;8.65;100.00
57442;BME280;43284;47.042;15.498;2024-03-02T09:21:49;96342.47;;;8.61;100.00
57442;BME280;43284;47.042;15.498;2024-03-02T09:24:15;96344.00;;;8.65;100.00
57442;BME280;43284;47.042;15.498;2024-03-02T09:26:41;96341.69;;;8.77;100.00
57442;BME280;43284;47.042;15.498;2024-03-02T09:29:09;96346.06;;;8.92;100.00
57442;BME280;43284;47.042;15.498;2024-03-02T09:31:39;96345.81;;;8.97;100.00
57442;BME280;43284;47.042;15.498;2024-03-02T09:34:06;96351.00;;;9.13;100.00
57442;BME280;43284;47.042;15.498;2024-03-02T09:36:31;96340.28;;;9.33;100.00
57442;BME280;43284;47.042;15.498;2024-03-02T09:38:59;96337.16;;;9.26;100.00
57442;BME280;43284;47.042;15.498;2024-03-02T09:41:25;96343.47;;;9.38;100.00
57442;BME280;43284;47.042;15.498;2024-03-02T09:43:51;96334.44;;;9.44;100.00
57442;BME280;43284;47.042;15.498;2024-03-02T09:46:17;96339.59;;;9.60;100.00
57442;BME280;43284;47.042;15.498;2024-03-02T09:48:46;96331.63;;;9.77;100.00
57442;BME280;43284;47.042;15.498;2024-03-02T09:51:11;96333.25;;;9.80;100.00
57442;BME280;43284;47.042;15.498;2024-03-02T09:53:38;96330.66;;;9.49;100.00
57442;BME280;43284;47.042;15.498;2024-03-02T09:56:04;96330.81;;;9.77;100.00
57442;BME280;43284;47.042;15.498;2024-03-02T09:58:33;96334.38;;;9.90;100.00
57442;BME280;43284;47.042;15.498;2024-03-02T10:00:59;96330.25;;;9.86;100.00
57442;BME280;43284;47.042;15.498;2024-03-02T10:03:24;96338.63;;;9.46;100.00
57442;BME280;43284;47.042;15.498;2024-03-02T10:05:50;96331.22;;;9.55;100.00
57442;BME280;43284;47.042;15.498;2024-03-02T10:08:17;96337.81;;;9.76;100.00
57442;BME280;43284;47.042;15.498;2024-03-02T10:10:45;96338.19;;;9.84;100.00
57442;BME280;43284;47.042;15.498;2024-03-02T10:13:12;96330.38;;;9.84;100.00
57442;BME280;43284;47.042;15.498;2024-03-02T10:15:41;96339.66;;;9.74;100.00
57442;BME280;43284;47.042;15.498;2024-03-02T10:18:13;96332.97;;;9.99;100.00
57442;BME280;43284;47.042;15.498;2024-03-02T10:20:40;96332.06;;;10.14;100.00
57442;BME280;43284;47.042;15.498;2024-03-02T10:23:15;96335.81;;;10.24;100.00
57442;BME280;43284;47.042;15.498;2024-03-02T10:25:43;96329.41;;;10.30;100.00
57442;BME280;43284;47.042;15.498;2024-03-02T10:28:09;96326.31;;;10.38;100.00
57442;BME280;43284;47.042;15.498;2024-03-02T10:30:35;96324.53;;;10.24;100.00
57442;BME280;43284;47.042;15.498;2024-03-02T10:33:02;96317.44;;;10.40;100.00
57442;BME280;43284;47.042;15.498;2024-03-02T10:35:27;96321.38;;;10.33;100.00
57442;BME280;43284;47.042;15.498;2024-03-02T10:37:53;96321.72;;;10.27;100.00
57442;BME280;43284;47.042;15.498;2024-03-02T10:40:22;96311.56;;;10.51;100.00
57442;BME280;43284;47.042;15.498;2024-03-02T10:42:52;96319.72;;;10.32;100.00
57442;BME280;43284;47.042;15.498;2024-03-02T10:45:20;96318.00;;;10.60;100.00
57442;BME280;43284;47.042;15.498;2024-03-02T10:47:52;96309.56;;;10.69;100.00
57442;BME280;43284;47.042;15.498;2024-03-02T10:50:18;96309.75;;;10.80;99.62
57442;BME280;43284;47.042;15.498;2024-03-02T10:52:46;96310.22;;;10.87;100.00
57442;BME280;43284;47.042;15.498;2024-03-02T10:55:12;96300.59;;;10.87;97.09
57442;BME280;43284;47.042;15.498;2024-03-02T10:57:50;96299.50;;;11.04;100.00
57442;BME280;43284;47.042;15.498;2024-03-02T11:00:19;96294.56;;;11.27;97.95
57442;BME280;43284;47.042;15.498;2024-03-02T11:02:51;96292.50;;;11.45;100.00
57442;BME280;43284;47.042;15.498;2024-03-02T11:05:33;96291.34;;;11.36;96.51
57442;BME280;43284;47.042;15.498;2024-03-02T11:08:06;96284.91;;;11.54;90.30
57442;BME280;43284;47.042;15.498;2024-03-02T11:10:46;96282.34;;;11.40;90.93
57442;BME280;43284;47.042;15.498;2024-03-02T11:13:13;96285.44;;;11.72;92.86
57442;BME280;43284;47.042;15.498;2024-03-02T11:15:45;96285.44;;;11.72;90.58
57442;BME280;43284;47.042;15.498;2024-03-02T11:18:11;96281.75;;;11.62;84.68
57442;BME280;43284;47.042;15.498;2024-03-02T11:20:39;96278.72;;;11.55;85.58
57442;BME280;43284;47.042;15.498;2024-03-02T11:23:06;96281.03;;;11.73;90.36
57442;BME280;43284;47.042;15.498;2024-03-02T11:25:32;96272.38;;;11.85;89.01
57442;BME280;43284;47.042;15.498;2024-03-02T11:28:06;96267.25;;;12.09;86.79
57442;BME280;43284;47.042;15.498;2024-03-02T11:33:10;96258.34;;;11.99;81.73
57442;BME280;43284;47.042;15.498;2024-03-02T11:35:36;96263.69;;;12.10;83.87
57442;BME280;43284;47.042;15.498;2024-03-02T11:38:03;96256.97;;;12.06;84.66
57442;BME280;43284;47.042;15.498;2024-03-02T11:40:29;96251.09;;;12.15;81.06
57442;BME280;43284;47.042;15.498;2024-03-02T11:42:55;96255.50;;;12.15;77.85
57442;BME280;43284;47.042;15.498;2024-03-02T11:45:28;96256.22;;;12.30;84.19
57442;BME280;43284;47.042;15.498;2024-03-02T11:47:55;96246.47;;;12.32;74.55
57442;BME280;43284;47.042;15.498;2024-03-02T11:50:33;96243.09;;;12.43;75.18
57442;BME280;43284;47.042;15.498;2024-03-02T11:53:00;96247.31;;;12.32;77.50
57442;BME280;43284;47.042;15.498;2024-03-02T11:55:26;96240.13;;;12.60;78.56
57442;BME280;43284;47.042;15.498;2024-03-02T11:57:54;96235.81;;;12.59;77.41
57442;BME280;43284;47.042;15.498;2024-03-02T12:00:23;96232.69;;;12.54;73.62
57442;BME280;43284;47.042;15.498;2024-03-02T12:03:10;96231.56;;;12.69;80.28
57442;BME280;43284;47.042;15.498;2024-03-02T12:05:40;96232.47;;;12.81;76.75
57442;BME280;43284;47.042;15.498;2024-03-02T12:08:12;96226.53;;;13.03;77.24
57442;BME280;43284;47.042;15.498;2024-03-02T12:11:04;96216.91;;;12.91;73.68
57442;BME280;43284;47.042;15.498;2024-03-02T12:13:31;96216.47;;;12.97;71.56
57442;BME280;43284;47.042;15.498;2024-03-02T12:15:58;96221.00;;;12.95;75.03
57442;BME280;43284;47.042;15.498;2024-03-02T12:18:24;96209.81;;;13.04;71.62
57442;BME280;43284;47.042;15.498;2024-03-02T12:21:00;96215.44;;;13.11;75.96
57442;BME280;43284;47.042;15.498;2024-03-02T12:23:29;96207.22;;;13.15;77.25
57442;BME280;43284;47.042;15.498;2024-03-02T12:25:55;96202.09;;;13.14;72.21
57442;BME280;43284;47.042;15.498;2024-03-02T12:28:21;96207.28;;;13.03;72.39
57442;BME280;43284;47.042;15.498;2024-03-02T12:30:48;96215.16;;;13.03;77.36
57442;BME280;43284;47.042;15.498;2024-03-02T12:33:14;96212.28;;;12.94;78.00
57442;BME280;43284;47.042;15.498;2024-03-02T12:35:40;96207.75;;;12.96;79.50
57442;BME280;43284;47.042;15.498;2024-03-02T12:38:06;96207.47;;;13.36;81.59
57442;BME280;43284;47.042;15.498;2024-03-02T12:40:38;96205.34;;;13.53;77.76
57442;BME280;43284;47.042;15.498;2024-03-02T12:43:05;96197.72;;;13.72;73.44
57442;BME280;43284;47.042;15.498;2024-03-02T12:45:41;96193.09;;;13.98;69.88
57442;BME280;43284;47.042;15.498;2024-03-02T12:48:07;96197.97;;;14.14;69.65
57442;BME280;43284;47.042;15.498;2024-03-02T12:50:33;96197.16;;;14.14;70.85
57442;BME280;43284;47.042;15.498;2024-03-02T12:52:59;96193.66;;;14.25;73.23
57442;BME280;43284;47.042;15.498;2024-03-02T12:55:24;96194.50;;;14.48;72.53
57442;BME280;43284;47.042;15.498;2024-03-02T12:57:51;96196.53;;;14.33;68.62
57442;BME280;43284;47.042;15.498;2024-03-02T13:00:21;96189.03;;;14.28;70.08
57442;BME280;43284;47.042;15.498;2024-03-02T13:02:47;96196.19;;;14.04;70.02
57442;BME280;43284;47.042;15.498;2024-03-02T13:05:13;96195.72;;;14.32;70.61
57442;BME280;43284;47.042;15.498;2024-03-02T13:07:39;96187.53;;;14.58;72.20
57442;BME280;43284;47.042;15.498;2024-03-02T13:10:06;96185.44;;;14.84;67.96
57442;BME280;43284;47.042;15.498;2024-03-02T13:12:38;96185.16;;;14.98;68.02
57442;BME280;43284;47.042;15.498;2024-03-02T13:15:04;96185.59;;;14.82;65.76
57442;BME280;43284;47.042;15.498;2024-03-02T13:17:34;96183.75;;;14.06;65.31
57442;BME280;43284;47.042;15.498;2024-03-02T13:20:00;96189.00;;;14.06;68.36
57442;BME280;43284;47.042;15.498;2024-03-02T13:22:26;96189.00;;;14.06;69.53
57442;BME280;43284;47.042;15.498;2024-03-02T13:24:52;96189.38;;;14.01;71.13
57442;BME280;43284;47.042;15.498;2024-03-02T13:27:20;96187.00;;;13.98;70.11
57442;BME280;43284;47.042;15.498;2024-03-02T13:29:46;96193.09;;;13.98;68.36
57442;BME280;43284;47.042;15.498;2024-03-02T13:32:15;96190.56;;;13.86;69.79
57442;BME280;43284;47.042;15.498;2024-03-02T13:34:41;96189.63;;;13.87;71.64
57442;BME280;43284;47.042;15.498;2024-03-02T13:37:07;96197.72;;;13.84;69.39
57442;BME280;43284;47.042;15.498;2024-03-02T13:39:33;96196.63;;;13.52;70.68
57442;BME280;43284;47.042;15.498;2024-03-02T13:42:06;96189.72;;;13.63;70.97
57442;BME280;43284;47.042;15.498;2024-03-02T13:44:33;96191.19;;;13.78;71.43
57442;BME280;43284;47.042;15.498;2024-03-02T13:47:00;96194.75;;;13.77;70.11
57442;BME280;43284;47.042;15.498;2024-03-02T13:49:25;96195.81;;;13.74;69.39
57442;BME280;43284;47.042;15.498;2024-03-02T13:52:07;96198.91;;;13.57;68.50